sensor_id;sensor_type;location;lat;lon;timestamp;P1;durP1;ratioP1;P2;durP2;ratioP2
22774;SDS011;11554;51.106;3.684;2023-05-07T00:00:00;12.40;;;4.50;;
22774;SDS011;11554;51.106;3.684;2023-05-07T00:05:00;12.40;;;4.50;;
22774;SDS011;11554;51.106;3.684;2023-05-07T00:10:00;13.70;;;4.40;;
22774;SDS011;11554;51.106;3.684;2023-05-07T00:15:00;13.70;;;4.40;;
22774;SDS011;11554;51.106;3.684;2023-05-07T00:20:00;10.40;;;4.10;;
22774;SDS011;11554;51.106;3.684;2023-05-07T00:25:00;10.40;;;4.10;;
22774;SDS011;11554;51.106;3.684;2023-05-07T00:30:00;12.50;;;3.80;;
22774;SDS011;11554;51.106;3.684;2023-05-07T00:35:00;12.50;;;3.80;;
22774;SDS011;11554;51.106;3.684;2023-05-07T00:40:00;9.70;;;3.70;;
22774;SDS011;11554;51.106;3.684;2023-05-07T00:45:00;9.70;;;3.70;;
22774;SDS011;11554;51.106;3.684;2023-05-07T00:50:00;10.60;;;4.00;;
22774;SDS011;11554;51.106;3.684;2023-05-07T00:55:05;10.60;;;4.00;;
22774;SDS011;11554;51.106;3.684;2023-05-07T01:00:01;9.20;;;3.60;;
22774;SDS011;11554;51.106;3.684;2023-05-07T01:05:00;9.20;;;3.60;;
22774;SDS011;11554;51.106;3.684;2023-05-07T01:10:00;13.50;;;4.00;;
22774;SDS011;11554;51.106;3.684;2023-05-07T01:15:00;13.50;;;4.00;;
22774;SDS011;11554;51.106;3.684;2023-05-07T01:20:00;9.10;;;3.90;;
22774;SDS011;11554;51.106;3.684;2023-05-07T01:25:00;9.10;;;3.90;;
22774;SDS011;11554;51.106;3.684;2023-05-07T01:30:00;13.10;;;5.00;;
22774;SDS011;11554;51.106;3.684;2023-05-07T01:35:01;13.10;;;5.00;;
22774;SDS011;11554;51.106;3.684;2023-05-07T01:40:01;18.00;;;6.60;;
22774;SDS011;11554;51.106;3.684;2023-05-07T01:45:00;18.00;;;6.60;;
22774;SDS011;11554;51.106;3.684;2023-05-07T01:50:00;14.00;;;6.00;;
22774;SDS011;11554;51.106;3.684;2023-05-07T01:55:00;14.00;;;6.00;;
22774;SDS011;11554;51.106;3.684;2023-05-07T02:00:00;13.30;;;6.00;;
22774;SDS011;11554;51.106;3.684;2023-05-07T02:05:00;13.30;;;6.00;;
22774;SDS011;11554;51.106;3.684;2023-05-07T02:10:00;13.90;;;6.20;;
22774;SDS011;11554;51.106;3.684;2023-05-07T02:15:00;13.90;;;6.20;;
22774;SDS011;11554;51.106;3.684;2023-05-07T02:20:00;14.40;;;5.90;;
22774;SDS011;11554;51.106;3.684;2023-05-07T02:25:00;14.40;;;5.90;;
22774;SDS011;11554;51.106;3.684;2023-05-07T02:30:00;12.70;;;5.80;;
22774;SDS011;11554;51.106;3.684;2023-05-07T02:35:00;12.70;;;5.80;;
22774;SDS011;11554;51.106;3.684;2023-05-07T02:40:00;10.20;;;4.50;;
22774;SDS011;11554;51.106;3.684;2023-05-07T02:45:00;10.20;;;4.50;;
22774;SDS011;11554;51.106;3.684;2023-05-07T02:50:00;11.70;;;5.40;;
22774;SDS011;11554;51.106;3.684;2023-05-07T02:55:00;11.70;;;5.40;;
22774;SDS011;11554;51.106;3.684;2023-05-07T03:00:10;14.00;;;5.50;;
22774;SDS011;11554;51.106;3.684;2023-05-07T03:05:00;14.00;;;5.50;;
22774;SDS011;11554;51.106;3.684;2023-05-07T03:10:00;15.30;;;5.60;;
22774;SDS011;11554;51.106;3.684;2023-05-07T03:15:00;15.30;;;5.60;;
22774;SDS011;11554;51.106;3.684;2023-05-07T03:20:00;12.70;;;5.30;;
22774;SDS011;11554;51.106;3.684;2023-05-07T03:25:00;12.70;;;5.30;;
22774;SDS011;11554;51.106;3.684;2023-05-07T03:30:00;13.40;;;6.10;;
22774;SDS011;11554;51.106;3.684;2023-05-07T03:35:00;13.40;;;6.10;;
22774;SDS011;11554;51.106;3.684;2023-05-07T03:40:00;12.90;;;6.70;;
22774;SDS011;11554;51.106;3.684;2023-05-07T03:45:00;12.90;;;6.70;;
22774;SDS011;11554;51.106;3.684;2023-05-07T03:50:00;13.30;;;6.20;;
22774;SDS011;11554;51.106;3.684;2023-05-07T03:55:00;13.30;;;6.20;;
22774;SDS011;11554;51.106;3.684;2023-05-07T04:00:00;13.90;;;6.10;;
22774;SDS011;11554;51.106;3.684;2023-05-07T04:05:00;13.90;;;6.10;;
22774;SDS011;11554;51.106;3.684;2023-05-07T04:10:00;11.20;;;6.30;;
22774;SDS011;11554;51.106;3.684;2023-05-07T04:15:00;11.20;;;6.30;;
22774;SDS011;11554;51.106;3.684;2023-05-07T04:20:00;15.50;;;7.30;;
22774;SDS011;11554;51.106;3.684;2023-05-07T04:25:00;15.50;;;7.30;;
22774;SDS011;11554;51.106;3.684;2023-05-07T04:30:00;16.60;;;8.70;;
22774;SDS011;11554;51.106;3.684;2023-05-07T04:35:00;16.60;;;8.70;;
22774;SDS011;11554;51.106;3.684;2023-05-07T04:40:00;16.00;;;8.60;;
22774;SDS011;11554;51.106;3.684;2023-05-07T04:45:00;16.00;;;8.60;;
22774;SDS011;11554;51.106;3.684;2023-05-07T04:50:00;17.40;;;8.70;;
22774;SDS011;11554;51.106;3.684;2023-05-07T04:55:00;17.40;;;8.70;;
22774;SDS011;11554;51.106;3.684;2023-05-07T05:00:00;15.50;;;9.00;;
22774;SDS011;11554;51.106;3.684;2023-05-07T05:05:00;15.50;;;9.00;;
22774;SDS011;11554;51.106;3.684;2023-05-07T05:10:02;16.50;;;9.50;;
22774;SDS011;11554;51.106;3.684;2023-05-07T05:15:00;16.50;;;9.50;;
22774;SDS011;11554;51.106;3.684;2023-05-07T05:20:00;12.30;;;6.60;;
22774;SDS011;11554;51.106;3.684;2023-05-07T05:25:00;12.30;;;6.60;;
22774;SDS011;11554;51.106;3.684;2023-05-07T05:30:00;13.80;;;7.70;;
22774;SDS011;11554;51.106;3.684;2023-05-07T05:35:00;13.80;;;7.70;;
22774;SDS011;11554;51.106;3.684;2023-05-07T05:40:00;12.40;;;7.50;;
22774;SDS011;11554;51.106;3.684;2023-05-07T05:45:00;12.40;;;7.50;;
22774;SDS011;11554;51.106;3.684;2023-05-07T05:50:00;13.40;;;6.40;;
22774;SDS011;11554;51.106;3.684;2023-05-07T05:55:00;13.40;;;6.40;;
22774;SDS011;11554;51.106;3.684;2023-05-07T06:00:00;15.40;;;6.90;;
22774;SDS011;11554;51.106;3.684;2023-05-07T06:05:00;15.40;;;6.90;;
22774;SDS011;11554;51.106;3.684;2023-05-07T06:10:00;13.40;;;6.80;;
22774;SDS011;11554;51.106;3.684;2023-05-07T06:15:00;13.40;;;6.80;;
22774;SDS011;11554;51.106;3.684;2023-05-07T06:20:00;11.90;;;5.80;;
22774;SDS011;11554;51.106;3.684;2023-05-07T06:25:00;11.90;;;5.80;;
22774;SDS011;11554;51.106;3.684;2023-05-07T06:30:00;13.60;;;6.60;;
22774;SDS011;11554;51.106;3.684;2023-05-07T06:35:00;13.60;;;6.60;;
22774;SDS011;11554;51.106;3.684;2023-05-07T06:40:00;9.80;;;5.40;;
22774;SDS011;11554;51.106;3.684;2023-05-07T06:45:00;9.80;;;5.40;;
22774;SDS011;11554;51.106;3.684;2023-05-07T06:50:00;9.90;;;4.60;;
22774;SDS011;11554;51.106;3.684;2023-05-07T06:55:00;9.90;;;4.60;;
22774;SDS011;11554;51.106;3.684;2023-05-07T07:00:00;8.00;;;3.90;;
22774;SDS011;11554;51.106;3.684;2023-05-07T07:05:00;8.00;;;3.90;;
22774;SDS011;11554;51.106;3.684;2023-05-07T07:10:00;7.70;;;3.50;;
22774;SDS011;11554;51.106;3.684;2023-05-07T07:15:00;7.70;;;3.50;;
22774;SDS011;11554;51.106;3.684;2023-05-07T07:20:00;6.50;;;3.40;;
22774;SDS011;11554;51.106;3.684;2023-05-07T07:25:00;6.50;;;3.40;;
22774;SDS011;11554;51.106;3.684;2023-05-07T07:30:00;8.60;;;3.40;;
22774;SDS011;11554;51.106;3.684;2023-05-07T07:35:00;8.60;;;3.40;;
22774;SDS011;11554;51.106;3.684;2023-05-07T07:40:00;8.10;;;4.00;;
22774;SDS011;11554;51.106;3.684;2023-05-07T07:45:00;8.10;;;4.00;;
22774;SDS011;11554;51.106;3.684;2023-05-07T07:50:00;8.40;;;3.90;;
22774;SDS011;11554;51.106;3.684;2023-05-07T07:55:01;8.40;;;3.90;;
22774;SDS011;11554;51.106;3.684;2023-05-07T08:00:00;8.70;;;3.50;;
22774;SDS011;11554;51.106;3.684;2023-05-07T08:05:00;8.70;;;3.50;;
22774;SDS011;11554;51.106;3.684;2023-05-07T08:10:00;7.80;;;3.30;;
22774;SDS011;11554;51.106;3.684;2023-05-07T08:15:00;7.80;;;3.30;;
22774;SDS011;11554;51.106;3.684;2023-05-07T08:20:00;8.70;;;3.40;;
22774;SDS011;11554;51.106;3.684;2023-05-07T08:25:00;8.70;;;3.40;;
22774;SDS011;11554;51.106;3.684;2023-05-07T08:30:00;8.50;;;3.50;;
22774;SDS011;11554;51.106;3.684;2023-05-07T08:35:00;8.50;;;3.50;;
22774;SDS011;11554;51.106;3.684;2023-05-07T08:40:00;5.70;;;2.70;;
22774;SDS011;11554;51.106;3.684;2023-05-07T08:45:01;5.70;;;2.70;;
22774;SDS011;11554;51.106;3.684;2023-05-07T08:50:00;7.70;;;3.00;;
22774;SDS011;11554;51.106;3.684;2023-05-07T08:55:02;7.70;;;3.00;;
22774;SDS011;11554;51.106;3.684;2023-05-07T09:00:00;6.40;;;2.60;;
22774;SDS011;11554;51.106;3.684;2023-05-07T09:05:00;6.40;;;2.60;;
22774;SDS011;11554;51.106;3.684;2023-05-07T09:10:02;6.50;;;2.70;;
22774;SDS011;11554;51.106;3.684;2023-05-07T09:15:00;6.50;;;2.70;;
22774;SDS011;11554;51.106;3.684;2023-05-07T09:20:02;5.60;;;2.40;;
22774;SDS011;11554;51.106;3.684;2023-05-07T09:25:00;5.60;;;2.40;;
22774;SDS011;11554;51.106;3.684;2023-05-07T09:30:03;5.60;;;2.30;;
22774;SDS011;11554;51.106;3.684;2023-05-07T09:35:00;5.60;;;2.30;;
22774;SDS011;11554;51.106;3.684;2023-05-07T09:40:00;6.30;;;2.70;;
22774;SDS011;11554;51.106;3.684;2023-05-07T09:45:00;6.30;;;2.70;;
22774;SDS011;11554;51.106;3.684;2023-05-07T09:50:05;5.70;;;2.30;;
22774;SDS011;11554;51.106;3.684;2023-05-07T09:55:00;5.70;;;2.30;;
22774;SDS011;11554;51.106;3.684;2023-05-07T10:00:01;6.20;;;2.50;;
22774;SDS011;11554;51.106;3.684;2023-05-07T10:05:01;6.20;;;2.50;;
22774;SDS011;11554;51.106;3.684;2023-05-07T10:10:01;6.30;;;2.00;;
22774;SDS011;11554;51.106;3.684;2023-05-07T10:15:00;6.30;;;2.00;;
22774;SDS011;11554;51.106;3.684;2023-05-07T10:20:00;5.80;;;2.10;;
22774;SDS011;11554;51.106;3.684;2023-05-07T10:25:02;5.80;;;2.10;;
22774;SDS011;11554;51.106;3.684;2023-05-07T10:30:10;5.70;;;2.00;;
22774;SDS011;11554;51.106;3.684;2023-05-07T10:35:02;5.70;;;2.00;;
22774;SDS011;11554;51.106;3.684;2023-05-07T10:40:00;5.90;;;2.00;;
22774;SDS011;11554;51.106;3.684;2023-05-07T10:45:11;5.90;;;2.00;;
22774;SDS011;11554;51.106;3.684;2023-05-07T10:55:18;4.70;;;1.70;;
22774;SDS011;11554;51.106;3.684;2023-05-07T11:00:00;4.40;;;1.80;;
22774;SDS011;11554;51.106;3.684;2023-05-07T11:10:02;6.50;;;2.20;;
22774;SDS011;11554;51.106;3.684;2023-05-07T11:15:00;6.50;;;2.20;;
22774;SDS011;11554;51.106;3.684;2023-05-07T11:20:01;4.40;;;2.00;;
22774;SDS011;11554;51.106;3.684;2023-05-07T11:25:01;4.40;;;2.00;;
22774;SDS011;11554;51.106;3.684;2023-05-07T11:30:00;5.00;;;1.60;;
22774;SDS011;11554;51.106;3.684;2023-05-07T11:35:00;5.00;;;1.60;;
22774;SDS011;11554;51.106;3.684;2023-05-07T11:40:04;5.50;;;1.90;;
22774;SDS011;11554;51.106;3.684;2023-05-07T11:45:01;5.50;;;1.90;;
22774;SDS011;11554;51.106;3.684;2023-05-07T11:50:03;5.90;;;1.80;;
22774;SDS011;11554;51.106;3.684;2023-05-07T11:55:02;5.90;;;1.80;;
22774;SDS011;11554;51.106;3.684;2023-05-07T12:00:01;5.80;;;1.50;;
22774;SDS011;11554;51.106;3.684;2023-05-07T12:05:00;5.80;;;1.50;;
22774;SDS011;11554;51.106;3.684;2023-05-07T12:10:04;3.80;;;1.50;;
22774;SDS011;11554;51.106;3.684;2023-05-07T12:15:00;3.80;;;1.50;;
22774;SDS011;11554;51.106;3.684;2023-05-07T12:20:00;4.30;;;1.40;;
22774;SDS011;11554;51.106;3.684;2023-05-07T12:25:00;4.30;;;1.40;;
22774;SDS011;11554;51.106;3.684;2023-05-07T12:30:00;3.60;;;1.60;;
22774;SDS011;11554;51.106;3.684;2023-05-07T12:35:00;3.60;;;1.60;;
22774;SDS011;11554;51.106;3.684;2023-05-07T12:40:04;4.10;;;1.50;;
22774;SDS011;11554;51.106;3.684;2023-05-07T12:45:00;4.10;;;1.50;;
22774;SDS011;11554;51.106;3.684;2023-05-07T12:50:00;3.10;;;1.20;;
22774;SDS011;11554;51.106;3.684;2023-05-07T12:55:04;3.10;;;1.20;;
22774;SDS011;11554;51.106;3.684;2023-05-07T13:00:00;2.80;;;1.40;;
22774;SDS011;11554;51.106;3.684;2023-05-07T13:05:00;2.80;;;1.40;;
22774;SDS011;11554;51.106;3.684;2023-05-07T13:10:00;4.00;;;1.40;;
22774;SDS011;11554;51.106;3.684;2023-05-07T13:15:00;4.00;;;1.40;;
22774;SDS011;11554;51.106;3.684;2023-05-07T13:20:00;4.50;;;1.70;;
22774;SDS011;11554;51.106;3.684;2023-05-07T13:25:00;4.50;;;1.70;;
22774;SDS011;11554;51.106;3.684;2023-05-07T13:30:00;4.20;;;1.50;;
22774;SDS011;11554;51.106;3.684;2023-05-07T13:35:00;4.20;;;1.50;;
22774;SDS011;11554;51.106;3.684;2023-05-07T13:40:00;4.50;;;1.50;;
22774;SDS011;11554;51.106;3.684;2023-05-07T13:45:00;4.50;;;1.50;;
22774;SDS011;11554;51.106;3.684;2023-05-07T13:50:00;3.70;;;1.40;;
22774;SDS011;11554;51.106;3.684;2023-05-07T13:55:00;3.70;;;1.40;;
22774;SDS011;11554;51.106;3.684;2023-05-07T14:00:00;4.20;;;1.90;;
22774;SDS011;11554;51.106;3.684;2023-05-07T14:05:00;4.20;;;1.90;;
22774;SDS011;11554;51.106;3.684;2023-05-07T14:10:00;7.30;;;3.40;;
22774;SDS011;11554;51.106;3.684;2023-05-07T14:15:00;7.30;;;3.40;;
22774;SDS011;11554;51.106;3.684;2023-05-07T14:20:00;5.70;;;3.10;;
22774;SDS011;11554;51.106;3.684;2023-05-07T14:25:00;5.70;;;3.10;;
22774;SDS011;11554;51.106;3.684;2023-05-07T14:30:00;5.90;;;2.80;;
22774;SDS011;11554;51.106;3.684;2023-05-07T14:35:00;5.90;;;2.80;;
22774;SDS011;11554;51.106;3.684;2023-05-07T14:40:00;5.30;;;2.90;;
22774;SDS011;11554;51.106;3.684;2023-05-07T14:45:00;5.30;;;2.90;;
22774;SDS011;11554;51.106;3.684;2023-05-07T14:50:00;5.30;;;3.10;;
22774;SDS011;11554;51.106;3.684;2023-05-07T14:55:00;5.30;;;3.10;;
22774;SDS011;11554;51.106;3.684;2023-05-07T15:00:00;6.30;;;3.00;;
22774;SDS011;11554;51.106;3.684;2023-05-07T15:05:00;6.30;;;3.00;;
22774;SDS011;11554;51.106;3.684;2023-05-07T15:10:00;6.20;;;3.50;;
22774;SDS011;11554;51.106;3.684;2023-05-07T15:15:00;6.20;;;3.50;;
22774;SDS011;11554;51.106;3.684;2023-05-07T15:20:00;8.50;;;5.50;;
22774;SDS011;11554;51.106;3.684;2023-05-07T15:25:00;8.50;;;5.50;;
22774;SDS011;11554;51.106;3.684;2023-05-07T15:30:00;6.80;;;5.10;;
22774;SDS011;11554;51.106;3.684;2023-05-07T15:35:00;6.80;;;5.10;;
22774;SDS011;11554;51.106;3.684;2023-05-07T15:40:00;6.90;;;4.00;;
22774;SDS011;11554;51.106;3.684;2023-05-07T15:45:00;6.90;;;4.00;;
22774;SDS011;11554;51.106;3.684;2023-05-07T15:50:00;7.10;;;5.00;;
22774;SDS011;11554;51.106;3.684;2023-05-07T15:55:00;7.10;;;5.00;;
22774;SDS011;11554;51.106;3.684;2023-05-07T16:00:00;11.00;;;7.20;;
22774;SDS011;11554;51.106;3.684;2023-05-07T16:05:00;11.00;;;7.20;;
22774;SDS011;11554;51.106;3.684;2023-05-07T16:10:00;20.50;;;12.10;;
22774;SDS011;11554;51.106;3.684;2023-05-07T16:15:00;20.50;;;12.10;;
22774;SDS011;11554;51.106;3.684;2023-05-07T16:20:01;23.40;;;18.50;;
22774;SDS011;11554;51.106;3.684;2023-05-07T16:25:00;23.40;;;18.50;;
22774;SDS011;11554;51.106;3.684;2023-05-07T16:30:00;25.90;;;21.20;;
22774;SDS011;11554;51.106;3.684;2023-05-07T16:35:00;25.90;;;21.20;;
22774;SDS011;11554;51.106;3.684;2023-05-07T16:40:00;28.10;;;21.20;;
22774;SDS011;11554;51.106;3.684;2023-05-07T16:45:00;28.10;;;21.20;;
22774;SDS011;11554;51.106;3.684;2023-05-07T16:50:00;25.90;;;21.40;;
22774;SDS011;11554;51.106;3.684;2023-05-07T16:55:00;25.90;;;21.40;;
22774;SDS011;11554;51.106;3.684;2023-05-07T17:00:00;20.30;;;16.80;;
22774;SDS011;11554;51.106;3.684;2023-05-07T17:05:00;20.30;;;16.80;;
22774;SDS011;11554;51.106;3.684;2023-05-07T17:10:00;18.10;;;14.80;;
22774;SDS011;11554;51.106;3.684;2023-05-07T17:15:00;18.10;;;14.80;;
22774;SDS011;11554;51.106;3.684;2023-05-07T17:20:00;15.70;;;11.00;;
22774;SDS011;11554;51.106;3.684;2023-05-07T17:25:00;15.70;;;11.00;;
22774;SDS011;11554;51.106;3.684;2023-05-07T17:30:00;13.60;;;8.80;;
22774;SDS011;11554;51.106;3.684;2023-05-07T17:35:00;13.60;;;8.80;;
22774;SDS011;11554;51.106;3.684;2023-05-07T17:40:00;12.70;;;8.90;;
22774;SDS011;11554;51.106;3.684;2023-05-07T17:45:00;12.70;;;8.90;;
22774;SDS011;11554;51.106;3.684;2023-05-07T17:50:00;13.80;;;8.90;;
22774;SDS011;11554;51.106;3.684;2023-05-07T17:55:00;13.80;;;8.90;;
22774;SDS011;11554;51.106;3.684;2023-05-07T18:00:00;16.10;;;9.40;;
22774;SDS011;11554;51.106;3.684;2023-05-07T18:05:00;16.10;;;9.40;;
22774;SDS011;11554;51.106;3.684;2023-05-07T18:10:00;14.20;;;9.20;;
22774;SDS011;11554;51.106;3.684;2023-05-07T18:15:00;14.20;;;9.20;;
22774;SDS011;11554;51.106;3.684;2023-05-07T18:20:00;12.70;;;8.90;;
22774;SDS011;11554;51.106;3.684;2023-05-07T18:25:00;12.70;;;8.90;;
22774;SDS011;11554;51.106;3.684;2023-05-07T18:30:00;17.50;;;11.10;;
22774;SDS011;11554;51.106;3.684;2023-05-07T18:35:00;17.50;;;11.10;;
22774;SDS011;11554;51.106;3.684;2023-05-07T18:40:00;20.10;;;12.60;;
22774;SDS011;11554;51.106;3.684;2023-05-07T18:45:00;20.10;;;12.60;;
22774;SDS011;11554;51.106;3.684;2023-05-07T18:50:00;21.80;;;13.00;;
22774;SDS011;11554;51.106;3.684;2023-05-07T18:55:00;21.80;;;13.00;;
22774;SDS011;11554;51.106;3.684;2023-05-07T19:00:00;17.60;;;11.60;;
22774;SDS011;11554;51.106;3.684;2023-05-07T19:05:00;17.60;;;11.60;;
22774;SDS011;11554;51.106;3.684;2023-05-07T19:10:00;18.10;;;10.70;;
22774;SDS011;11554;51.106;3.684;2023-05-07T19:15:00;18.10;;;10.70;;
22774;SDS011;11554;51.106;3.684;2023-05-07T19:20:00;16.50;;;9.50;;
22774;SDS011;11554;51.106;3.684;2023-05-07T19:25:00;16.50;;;9.50;;
22774;SDS011;11554;51.106;3.684;2023-05-07T19:30:00;13.30;;;8.90;;
22774;SDS011;11554;51.106;3.684;2023-05-07T19:35:00;13.30;;;8.90;;
22774;SDS011;11554;51.106;3.684;2023-05-07T19:40:00;17.20;;;10.60;;
22774;SDS011;11554;51.106;3.684;2023-05-07T19:45:00;17.20;;;10.60;;
22774;SDS011;11554;51.106;3.684;2023-05-07T19:50:00;19.30;;;12.80;;
22774;SDS011;11554;51.106;3.684;2023-05-07T19:55:00;19.30;;;12.80;;
22774;SDS011;11554;51.106;3.684;2023-05-07T20:00:00;18.10;;;10.60;;
22774;SDS011;11554;51.106;3.684;2023-05-07T20:05:00;18.10;;;10.60;;
22774;SDS011;11554;51.106;3.684;2023-05-07T20:10:00;18.90;;;12.50;;
22774;SDS011;11554;51.106;3.684;2023-05-07T20:15:00;18.90;;;12.50;;
22774;SDS011;11554;51.106;3.684;2023-05-07T20:20:00;18.40;;;11.70;;
22774;SDS011;11554;51.106;3.684;2023-05-07T20:25:02;18.40;;;11.70;;
22774;SDS011;11554;51.106;3.684;2023-05-07T20:30:00;22.20;;;15.70;;
22774;SDS011;11554;51.106;3.684;2023-05-07T20:35:00;22.20;;;15.70;;
22774;SDS011;11554;51.106;3.684;2023-05-07T20:40:00;19.60;;;14.00;;
22774;SDS011;11554;51.106;3.684;2023-05-07T20:45:00;19.60;;;14.00;;
22774;SDS011;11554;51.106;3.684;2023-05-07T20:50:00;15.80;;;10.90;;
22774;SDS011;11554;51.106;3.684;2023-05-07T20:55:00;15.80;;;10.90;;
22774;SDS011;11554;51.106;3.684;2023-05-07T21:00:00;16.60;;;11.00;;
22774;SDS011;11554;51.106;3.684;2023-05-07T21:05:00;16.60;;;11.00;;
22774;SDS011;11554;51.106;3.684;2023-05-07T21:10:00;16.90;;;11.60;;
22774;SDS011;11554;51.106;3.684;2023-05-07T21:15:00;16.90;;;11.60;;
22774;SDS011;11554;51.106;3.684;2023-05-07T21:20:00;18.90;;;13.90;;
22774;SDS011;11554;51.106;3.684;2023-05-07T21:25:00;18.90;;;13.90;;
22774;SDS011;11554;51.106;3.684;2023-05-07T21:30:00;19.70;;;12.70;;
22774;SDS011;11554;51.106;3.684;2023-05-07T21:35:00;19.70;;;12.70;;
22774;SDS011;11554;51.106;3.684;2023-05-07T21:40:00;20.40;;;14.50;;
22774;SDS011;11554;51.106;3.684;2023-05-07T21:45:00;20.40;;;14.50;;
22774;SDS011;11554;51.106;3.684;2023-05-07T21:50:00;21.20;;;15.70;;
22774;SDS011;11554;51.106;3.684;2023-05-07T21:55:00;21.20;;;15.70;;
22774;SDS011;11554;51.106;3.684;2023-05-07T22:00:00;24.00;;;16.60;;
22774;SDS011;11554;51.106;3.684;2023-05-07T22:05:00;24.00;;;16.60;;
22774;SDS011;11554;51.106;3.684;2023-05-07T22:10:00;24.00;;;16.60;;
22774;SDS011;11554;51.106;3.684;2023-05-07T22:15:00;23.90;;;16.80;;
22774;SDS011;11554;51.106;3.684;2023-05-07T22:20:00;23.90;;;16.80;;
22774;SDS011;11554;51.106;3.684;2023-05-07T22:25:00;27.00;;;19.30;;
22774;SDS011;11554;51.106;3.684;2023-05-07T22:30:00;27.00;;;19.30;;
22774;SDS011;11554;51.106;3.684;2023-05-07T22:35:00;27.60;;;20.40;;
22774;SDS011;11554;51.106;3.684;2023-05-07T22:40:00;27.60;;;20.40;;
22774;SDS011;11554;51.106;3.684;2023-05-07T22:45:00;34.70;;;24.20;;
22774;SDS011;11554;51.106;3.684;2023-05-07T22:50:00;34.70;;;24.20;;
22774;SDS011;11554;51.106;3.684;2023-05-07T22:55:00;38.50;;;28.80;;
22774;SDS011;11554;51.106;3.684;2023-05-07T23:00:00;38.50;;;28.80;;
22774;SDS011;11554;51.106;3.684;2023-05-07T23:05:00;42.00;;;31.20;;
22774;SDS011;11554;51.106;3.684;2023-05-07T23:10:00;42.00;;;31.20;;
22774;SDS011;11554;51.106;3.684;2023-05-07T23:15:00;45.90;;;32.10;;
22774;SDS011;11554;51.106;3.684;2023-05-07T23:20:00;45.90;;;32.10;;
22774;SDS011;11554;51.106;3.684;2023-05-07T23:25:00;47.20;;;32.60;;
22774;SDS011;11554;51.106;3.684;2023-05-07T23:30:00;47.20;;;32.60;;
22774;SDS011;11554;51.106;3.684;2023-05-07T23:35:00;48.70;;;34.10;;
22774;SDS011;11554;51.106;3.684;2023-05-07T23:40:00;48.70;;;34.10;;
22774;SDS011;11554;51.106;3.684;2023-05-07T23:45:00;52.60;;;35.80;;
22774;SDS011;11554;51.106;3.684;2023-05-07T23:50:00;52.60;;;35.80;;
22774;SDS011;11554;51.106;3.684;2023-05-07T23:55:00;53.00;;;35.20;;
